Time;durP1;ratioP1;P1;durP2;ratioP2;P2;SDS_P1;SDS_P2;PMS_P1;PMS_P2;Temp;Humidity;BMP_temperature;BMP_pressure;BME280_temperature;BME280_humidity;BME280_pressure;Samples;Min_cycle;Max_cycle;Signal;HPM_P1;HPM_P2
2022/06/25 00:02:15;;;;;;;30.65;7.80;;;23.50;99.90;;;;;;5056761;28;20711;-91
2022/06/25 00:07:31;;;;;;;27.42;8.50;;;23.50;99.90;;;;;;5055016;28;20396;-91
2022/06/25 00:10:02;;;;;;;26.00;8.32;;;23.50;99.90;;;;;;5040572;28;20036;-91
2022/06/25 00:12:34;;;;;;;28.80;7.85;;;23.60;99.90;;;;;;5051224;28;20040;-95
2022/06/25 00:15:05;;;;;;;30.15;7.70;;;23.60;99.90;;;;;;5062711;28;20021;-95
2022/06/25 00:17:34;;;;;;;21.77;7.53;;;23.60;99.90;;;;;;5036647;28;20040;-92
2022/06/25 00:19:59;;;;;;;28.10;8.50;;;23.60;99.90;;;;;;5062224;28;20099;-94
2022/06/25 00:22:25;;;;;;;24.05;7.22;;;23.60;99.90;;;;;;5040487;28;20116;-91
2022/06/25 00:24:54;;;;;;;27.25;7.63;;;23.60;99.90;;;;;;5039595;28;20531;-91
2022/06/25 00:27:43;;;;;;;26.20;7.63;;;23.60;99.90;;;;;;5036015;28;20035;-91
2022/06/25 00:30:39;;;;;;;18.95;7.38;;;23.50;99.90;;;;;;5031935;28;20119;-92
2022/06/25 00:33:05;;;;;;;23.35;7.82;;;23.50;99.90;;;;;;5063622;28;20111;-93
2022/06/25 00:36:09;;;;;;;18.90;7.40;;;23.40;99.90;;;;;;5060115;28;20029;-90
2022/06/25 00:38:27;;;;;;;29.75;7.47;;;23.40;99.90;;;;;;5068353;28;20050;-91
2022/06/25 00:40:53;;;;;;;26.80;8.20;;;23.40;99.90;;;;;;5040616;28;20032;-91
2022/06/25 00:43:31;;;;;;;26.48;7.90;;;23.40;99.90;;;;;;5048662;28;20024;-90
2022/06/25 00:45:59;;;;;;;25.77;8.25;;;23.30;99.90;;;;;;5058498;28;20037;-90
2022/06/25 00:48:25;;;;;;;24.20;8.07;;;23.20;99.90;;;;;;5047426;28;20064;-91
2022/06/25 00:51:00;;;;;;;26.65;7.18;;;23.20;99.90;;;;;;5039241;28;20251;-90
2022/06/25 00:53:32;;;;;;;27.58;7.95;;;23.20;99.90;;;;;;5034833;28;20179;-91
2022/06/25 00:55:59;;;;;;;32.75;7.70;;;23.20;99.90;;;;;;5034726;28;20100;-93
2022/06/25 00:58:47;;;;;;;21.52;7.65;;;23.20;99.90;;;;;;5054285;28;20033;-91
2022/06/25 01:01:14;;;;;;;27.98;7.68;;;23.20;99.90;;;;;;5041937;28;20146;-94
2022/06/25 01:03:45;;;;;;;28.63;8.73;;;23.20;99.90;;;;;;5053602;28;20375;-91
2022/06/25 01:06:11;;;;;;;29.30;8.43;;;23.20;99.90;;;;;;5036283;28;20025;-92
2022/06/25 01:08:43;;;;;;;21.42;7.75;;;23.10;99.90;;;;;;5053431;28;20028;-89
2022/06/25 01:11:11;;;;;;;;;;;23.10;99.90;;;;;;5060208;28;20035;-91
2022/06/25 01:13:42;;;;;;;22.73;7.68;;;23.10;99.90;;;;;;5044674;28;19932;-91
2022/06/25 01:16:08;;;;;;;22.27;7.13;;;23.10;99.90;;;;;;5056968;28;20167;-91
2022/06/25 01:18:37;;;;;;;37.13;8.30;;;23.10;99.90;;;;;;5034230;28;20582;-91
2022/06/25 01:21:03;;;;;;;22.63;7.32;;;23.10;99.90;;;;;;5048357;28;20062;-91
2022/06/25 01:23:30;;;;;;;27.73;7.95;;;23.00;99.90;;;;;;5040109;28;20523;-90
2022/06/25 01:26:07;;;;;;;19.40;7.15;;;23.00;99.90;;;;;;5041183;28;20025;-90
2022/06/25 01:28:32;;;;;;;26.33;7.70;;;22.90;99.90;;;;;;5049741;28;20506;-90
2022/06/25 01:30:58;;;;;;;21.55;8.05;;;22.90;99.90;;;;;;5047369;28;20032;-91
2022/06/25 01:33:24;;;;;;;25.35;8.25;;;22.90;99.90;;;;;;5048635;28;20506;-91
2022/06/25 01:35:56;;;;;;;30.80;8.05;;;22.80;99.90;;;;;;5037302;28;20029;-91
2022/06/25 01:38:22;;;;;;;30.27;8.13;;;22.80;99.90;;;;;;5051958;28;20271;-92
2022/06/25 01:40:50;;;;;;;29.02;8.18;;;22.80;99.90;;;;;;5042953;28;20466;-90
2022/06/25 01:43:16;;;;;;;22.13;8.02;;;22.80;99.90;;;;;;5051880;28;20032;-89
2022/06/25 01:45:42;;;;;;;26.23;7.13;;;22.80;99.90;;;;;;5063578;28;20028;-91
2022/06/25 01:48:08;;;;;;;26.65;8.20;;;22.80;99.90;;;;;;5053118;28;20435;-91
2022/06/25 01:50:35;;;;;;;27.83;7.70;;;22.70;99.90;;;;;;5043151;28;20035;-91
2022/06/25 01:53:10;;;;;;;20.30;7.97;;;22.70;99.90;;;;;;5039668;28;20121;-90
2022/06/25 01:55:42;;;;;;;26.52;7.82;;;22.70;99.90;;;;;;5052716;28;20047;-91
2022/06/25 01:58:08;;;;;;;22.63;7.35;;;22.70;99.90;;;;;;5052951;28;20471;-91
2022/06/25 02:00:34;;;;;;;26.58;7.68;;;22.70;99.90;;;;;;5038936;28;20632;-90
2022/06/25 02:03:07;;;;;;;33.13;8.55;;;22.70;99.90;;;;;;5042840;28;20108;-92
2022/06/25 02:08:26;;;;;;;18.50;7.45;;;22.70;99.90;;;;;;5064428;28;20545;-91
2022/06/25 02:11:03;;;;;;;27.88;8.20;;;22.70;99.90;;;;;;5040311;28;20033;-91
2022/06/25 02:13:34;;;;;;;21.05;7.32;;;22.70;99.90;;;;;;5040741;28;20110;-91
2022/06/25 02:16:00;;;;;;;24.25;7.85;;;22.70;99.90;;;;;;5043615;28;20074;-90
2022/06/25 02:18:27;;;;;;;19.40;7.50;;;22.70;99.90;;;;;;5033968;28;20029;-88
2022/06/25 02:20:56;;;;;;;23.25;7.93;;;22.70;99.90;;;;;;5052902;28;20025;-90
2022/06/25 02:23:28;;;;;;;29.08;7.72;;;22.60;99.90;;;;;;5037585;28;20056;-91
2022/06/25 02:25:56;;;;;;;20.27;7.60;;;22.60;99.90;;;;;;5043270;28;20102;-91
2022/06/25 02:28:22;;;;;;;23.42;7.82;;;22.60;99.90;;;;;;5038758;28;20056;-92
2022/06/25 02:30:51;;;;;;;20.40;7.30;;;22.50;99.90;;;;;;5055059;28;20067;-91
2022/06/25 02:33:20;;;;;;;30.70;8.30;;;22.50;99.90;;;;;;5038399;28;20456;-90
2022/06/25 02:35:49;;;;;;;30.30;7.97;;;22.50;99.90;;;;;;5056604;28;20028;-89
2022/06/25 02:38:18;;;;;;;21.15;7.25;;;22.40;99.90;;;;;;5033254;28;20469;-91
2022/06/25 02:40:43;;;;;;;29.20;8.15;;;22.40;99.90;;;;;;5039664;28;20025;-93
2022/06/25 02:43:09;;;;;;;23.90;7.10;;;22.30;99.90;;;;;;5053146;28;20035;-89
2022/06/25 02:45:35;;;;;;;21.23;7.43;;;22.20;99.90;;;;;;5054378;28;20087;-92
2022/06/25 02:48:01;;;;;;;27.83;7.47;;;22.20;99.90;;;;;;5036815;28;20031;-89
2022/06/25 02:50:27;;;;;;;34.42;7.80;;;22.20;99.90;;;;;;5041900;28;20051;-89
2022/06/25 02:52:53;;;;;;;23.17;8.07;;;22.20;99.90;;;;;;5035566;28;20480;-88
2022/06/25 02:55:19;;;;;;;25.52;7.82;;;22.20;99.90;;;;;;5043385;28;20025;-89
2022/06/25 03:00:29;;;;;;;28.83;8.80;;;22.20;99.90;;;;;;5062941;28;20116;-92
2022/06/25 03:02:55;;;;;;;23.80;7.75;;;22.20;99.90;;;;;;5062067;28;20484;-90
2022/06/25 03:05:20;;;;;;;23.60;8.45;;;22.20;99.90;;;;;;5041895;28;20029;-91
2022/06/25 03:07:49;;;;;;;22.63;7.95;;;22.20;99.90;;;;;;5036677;28;20530;-88
2022/06/25 03:10:15;;;;;;;26.33;8.10;;;22.20;99.90;;;;;;5059144;28;20020;-91
2022/06/25 03:12:41;;;;;;;16.85;7.28;;;22.20;99.90;;;;;;5037732;28;20081;-88
2022/06/25 03:15:07;;;;;;;28.90;7.20;;;22.20;99.90;;;;;;5044571;28;20039;-89
2022/06/25 03:17:33;;;;;;;35.25;8.05;;;22.20;99.90;;;;;;5036251;28;20179;-88
2022/06/25 03:20:02;;;;;;;19.90;7.80;;;22.20;99.90;;;;;;5037086;28;20411;-89
2022/06/25 03:22:27;;;;;;;29.67;7.75;;;22.20;99.90;;;;;;5038122;28;20021;-92
2022/06/25 03:24:53;;;;;;;30.85;7.60;;;22.20;99.90;;;;;;5042347;28;20048;-92
2022/06/25 03:27:19;;;;;;;22.17;7.07;;;22.30;99.90;;;;;;5062052;28;20280;-93
2022/06/25 03:29:55;;;;;;;22.98;7.45;;;22.20;99.90;;;;;;5047042;28;20057;-89
2022/06/25 03:32:21;;;;;;;26.80;7.43;;;22.20;99.90;;;;;;5048486;28;20491;-89
2022/06/25 03:34:47;;;;;;;19.77;6.60;;;22.30;99.90;;;;;;5054114;28;20112;-90
2022/06/25 03:37:13;;;;;;;27.60;7.90;;;22.30;99.90;;;;;;5035204;28;20563;-90
2022/06/25 03:39:39;;;;;;;26.80;7.13;;;22.30;99.90;;;;;;5039341;28;20024;-89
2022/06/25 03:42:05;;;;;;;24.35;7.30;;;22.30;99.90;;;;;;5036131;28;20533;-88
2022/06/25 03:44:31;;;;;;;17.63;6.20;;;22.30;99.90;;;;;;5054503;28;20025;-89
2022/06/25 03:46:57;;;;;;;21.92;6.88;;;22.30;99.90;;;;;;5036107;28;20033;-90
2022/06/25 03:49:25;;;;;;;18.85;5.95;;;22.30;99.90;;;;;;5042550;28;20075;-88
2022/06/25 03:52:04;;;;;;;15.13;6.35;;;22.30;99.90;;;;;;5046954;28;20103;-88
2022/06/25 03:54:37;;;;;;;18.15;5.97;;;22.30;99.90;;;;;;5039981;28;20527;-89
2022/06/25 03:57:05;;;;;;;25.40;7.57;;;22.30;99.90;;;;;;5045160;28;20032;-89
2022/06/25 03:59:30;;;;;;;20.27;6.03;;;22.30;99.90;;;;;;5047812;28;20021;-91
2022/06/25 04:01:56;;;;;;;17.73;6.25;;;22.40;99.90;;;;;;5040029;28;20039;-94
2022/06/25 04:04:22;;;;;;;20.15;6.25;;;22.40;99.90;;;;;;5036591;28;20067;-92
2022/06/25 04:06:47;;;;;;;24.50;6.57;;;22.40;99.90;;;;;;5063503;28;20016;-93
2022/06/25 04:09:13;;;;;;;20.00;6.25;;;22.40;99.90;;;;;;5055929;28;20017;-93
2022/06/25 04:11:39;;;;;;;22.05;5.60;;;22.50;99.90;;;;;;5047205;28;20128;-94
2022/06/25 04:14:05;;;;;;;21.80;6.25;;;22.50;99.90;;;;;;5059970;28;20029;-92
2022/06/25 04:16:30;;;;;;;15.95;5.00;;;22.60;99.90;;;;;;5064759;28;20078;-93
2022/06/25 04:18:56;;;;;;;17.27;5.90;;;22.60;99.90;;;;;;5069325;28;20073;-91
2022/06/25 04:21:22;;;;;;;20.67;5.90;;;22.60;99.90;;;;;;5040514;28;20033;-94
2022/06/25 04:23:48;;;;;;;22.40;5.63;;;22.70;99.90;;;;;;5049181;28;20106;-93
2022/06/25 04:26:14;;;;;;;20.85;6.28;;;22.70;99.90;;;;;;5036059;28;20036;-91
2022/06/25 04:31:24;;;;;;;17.73;5.90;;;22.80;99.90;;;;;;5040765;28;20099;-89
2022/06/25 04:33:51;;;;;;;23.83;5.13;;;22.90;99.90;;;;;;5036737;28;20025;-92
2022/06/25 04:36:17;;;;;;;18.48;5.20;;;22.90;99.90;;;;;;5046128;28;20137;-91
2022/06/25 04:38:43;;;;;;;20.88;4.97;;;23.10;99.90;;;;;;5033349;28;20060;-90
2022/06/25 04:41:09;;;;;;;19.63;4.90;;;23.10;99.90;;;;;;5037497;28;20026;-89
2022/06/25 04:43:35;;;;;;;17.45;4.88;;;23.10;99.90;;;;;;5032106;28;20088;-93
2022/06/25 04:46:00;;;;;;;18.33;4.68;;;23.20;99.90;;;;;;5038891;28;20032;-94
2022/06/25 04:48:26;;;;;;;16.73;4.50;;;23.20;99.90;;;;;;5040001;28;20021;-95
2022/06/25 04:50:52;;;;;;;16.92;5.70;;;23.30;99.90;;;;;;5038911;28;20025;-95
2022/06/25 04:53:17;;;;;;;12.45;4.90;;;23.30;99.90;;;;;;5038993;28;20034;-95
2022/06/25 04:55:43;;;;;;;15.90;4.78;;;23.40;99.90;;;;;;5043857;28;20025;-93
2022/06/25 04:58:10;;;;;;;15.10;4.50;;;23.40;99.90;;;;;;5041198;28;20449;-93
2022/06/25 05:00:36;;;;;;;15.55;4.65;;;23.50;99.90;;;;;;5041806;28;20029;-93
2022/06/25 05:03:01;;;;;;;13.90;4.20;;;23.50;99.90;;;;;;5038329;28;20476;-92
2022/06/25 05:05:27;;;;;;;14.35;4.43;;;23.70;99.90;;;;;;5043808;28;20033;-94
2022/06/25 05:07:53;;;;;;;19.73;4.55;;;23.70;99.90;;;;;;5035462;28;20083;-92
2022/06/25 05:10:19;;;;;;;19.95;4.03;;;23.70;99.90;;;;;;5038379;28;20071;-94
2022/06/25 05:15:28;;;;;;;8.73;3.55;;;23.90;99.90;;;;;;5040208;28;20086;-94
2022/06/25 05:17:54;;;;;;;18.92;3.88;;;24.00;99.90;;;;;;5039060;28;20124;-94
2022/06/25 05:20:20;;;;;;;19.25;3.63;;;24.10;99.90;;;;;;5043247;28;20036;-95
2022/06/25 05:22:46;;;;;;;13.75;3.72;;;24.10;99.90;;;;;;5035592;28;20029;-92
2022/06/25 05:25:11;;;;;;;11.95;3.63;;;24.10;99.90;;;;;;5061220;28;20060;-92
2022/06/25 05:27:37;;;;;;;21.17;3.95;;;24.20;99.90;;;;;;5060200;28;20108;-94
2022/06/25 05:30:05;;;;;;;26.65;5.55;;;24.20;99.90;;;;;;5037403;28;20043;-90
2022/06/25 05:32:30;;;;;;;16.35;3.97;;;24.30;99.90;;;;;;5055326;28;20083;-91
2022/06/25 05:34:57;;;;;;;15.40;3.55;;;24.50;99.90;;;;;;5061063;28;20451;-93
2022/06/25 05:37:24;;;;;;;12.55;3.60;;;24.60;99.90;;;;;;5033425;28;20025;-93
2022/06/25 05:39:49;;;;;;;34.45;5.95;;;24.50;99.90;;;;;;5041242;28;20025;-90
2022/06/25 05:42:15;;;;;;;18.85;3.45;;;24.60;99.90;;;;;;5055404;28;20622;-91
2022/06/25 05:44:41;;;;;;;14.30;3.30;;;24.60;99.90;;;;;;5062422;28;20051;-91
2022/06/25 05:47:07;;;;;;;16.52;3.92;;;24.60;99.90;;;;;;5063695;28;20020;-90
2022/06/25 05:49:32;;;;;;;13.25;3.60;;;24.70;99.90;;;;;;5039891;28;20028;-90
2022/06/25 05:51:58;;;;;;;16.88;3.58;;;24.80;99.90;;;;;;5037517;28;20483;-93
2022/06/25 05:54:24;;;;;;;18.20;3.78;;;24.80;99.90;;;;;;5054208;28;20480;-92
2022/06/25 05:56:49;;;;;;;18.42;3.53;;;24.90;99.90;;;;;;5053298;28;20037;-93
2022/06/25 05:59:16;;;;;;;11.13;3.17;;;24.90;99.90;;;;;;5042518;28;20020;-91
2022/06/25 06:01:41;;;;;;;16.55;4.30;;;25.00;99.90;;;;;;5042181;28;20033;-91
2022/06/25 06:04:07;;;;;;;10.60;3.47;;;25.10;99.90;;;;;;5054319;28;20499;-91
2022/06/25 06:06:33;;;;;;;15.73;2.85;;;25.10;99.90;;;;;;5044684;28;20102;-89
2022/06/25 06:08:58;;;;;;;28.00;4.95;;;25.20;99.90;;;;;;5041231;28;20025;-89
2022/06/25 06:11:24;;;;;;;13.23;3.65;;;25.30;99.90;;;;;;5063170;28;20025;-90
2022/06/25 06:13:50;;;;;;;21.02;3.45;;;25.30;99.90;;;;;;5036528;28;20033;-89
2022/06/25 06:16:15;;;;;;;10.77;3.00;;;25.40;99.90;;;;;;5043276;28;20437;-88
2022/06/25 06:18:41;;;;;;;18.30;3.70;;;25.40;99.90;;;;;;5033544;28;20060;-89
2022/06/25 06:21:07;;;;;;;25.27;3.65;;;25.50;99.90;;;;;;5057422;28;20037;-89
2022/06/25 06:23:32;;;;;;;11.40;3.30;;;25.60;99.90;;;;;;5064503;28;20033;-91
2022/06/25 06:25:58;;;;;;;13.23;3.20;;;25.60;99.90;;;;;;5044709;28;20035;-91
2022/06/25 06:28:24;;;;;;;10.02;3.38;;;25.60;99.90;;;;;;5041769;28;20112;-91
2022/06/25 06:30:49;;;;;;;14.15;3.47;;;25.60;99.90;;;;;;5040747;28;20406;-89
2022/06/25 06:33:15;;;;;;;12.80;3.13;;;25.70;99.90;;;;;;5060986;28;20577;-91
2022/06/25 06:35:41;;;;;;;12.15;3.47;;;25.70;99.90;;;;;;5068183;28;20066;-91
2022/06/25 06:38:06;;;;;;;9.00;3.13;;;25.80;99.90;;;;;;5062001;28;20039;-91
2022/06/25 06:40:32;;;;;;;17.80;3.22;;;25.80;99.90;;;;;;5058931;28;20441;-88
2022/06/25 06:42:58;;;;;;;9.60;3.17;;;25.80;99.90;;;;;;5036963;28;20554;-89
2022/06/25 06:45:24;;;;;;;13.02;3.10;;;26.00;99.90;;;;;;5058952;28;20025;-90
2022/06/25 06:47:49;;;;;;;12.80;3.72;;;26.10;99.90;;;;;;5038035;28;20021;-89
2022/06/25 06:50:15;;;;;;;11.75;3.05;;;26.20;99.90;;;;;;5064899;28;20459;-91
2022/06/25 06:52:41;;;;;;;13.10;2.90;;;26.30;99.90;;;;;;5062485;28;20033;-91
2022/06/25 06:55:07;;;;;;;10.85;2.95;;;26.40;99.90;;;;;;5062228;28;20438;-91
2022/06/25 06:57:34;;;;;;;13.63;3.22;;;26.40;99.90;;;;;;5041440;28;20029;-91
2022/06/25 07:00:04;;;;;;;13.32;3.38;;;26.50;99.90;;;;;;5037658;28;20025;-89
2022/06/25 07:02:30;;;;;;;11.48;3.13;;;26.50;99.90;;;;;;5042983;28;20558;-86
2022/06/25 07:04:56;;;;;;;17.77;3.35;;;26.70;99.90;;;;;;5057207;28;20055;-91
2022/06/25 07:07:22;;;;;;;17.33;3.63;;;26.60;99.90;;;;;;5044978;28;20025;-89
2022/06/25 07:09:47;;;;;;;9.73;2.55;;;26.60;99.90;;;;;;5041748;28;20036;-92
2022/06/25 07:12:13;;;;;;;15.13;3.60;;;26.50;99.90;;;;;;5067949;28;20044;-89
2022/06/25 07:14:39;;;;;;;11.38;3.20;;;26.60;99.90;;;;;;5050330;28;20037;-90
2022/06/25 07:17:04;;;;;;;11.15;2.90;;;26.60;99.90;;;;;;5056443;28;20028;-93
2022/06/25 07:19:30;;;;;;;11.80;2.90;;;26.60;99.90;;;;;;5068431;28;20082;-85
2022/06/25 07:21:57;;;;;;;10.65;3.00;;;26.70;99.90;;;;;;5063614;28;20380;-93
2022/06/25 07:24:23;;;;;;;8.88;3.03;;;26.70;99.90;;;;;;5067831;28;20048;-93
2022/06/25 07:26:49;;;;;;;15.48;3.65;;;26.80;99.90;;;;;;5049708;28;20016;-95
2022/06/25 07:29:15;;;;;;;11.02;2.72;;;27.00;99.90;;;;;;5072778;28;20610;-91
2022/06/25 07:31:41;;;;;;;16.13;2.90;;;27.10;99.90;;;;;;5035789;28;20025;-84
2022/06/25 07:34:07;;;;;;;11.35;2.83;;;27.00;99.90;;;;;;5056508;28;20032;-87
2022/06/25 07:36:32;;;;;;;13.77;3.08;;;27.00;99.90;;;;;;5059126;28;20112;-86
2022/06/25 07:39:00;;;;;;;9.75;2.80;;;27.30;99.90;;;;;;5038274;28;20024;-87
2022/06/25 07:41:27;;;;;;;8.90;2.90;;;27.50;99.90;;;;;;5062093;28;20372;-85
2022/06/25 07:43:52;;;;;;;11.90;2.72;;;27.70;99.90;;;;;;5049379;28;20024;-86
2022/06/25 07:46:19;;;;;;;8.63;2.75;;;27.80;99.90;;;;;;5063370;28;20025;-87
2022/06/25 07:48:45;;;;;;;8.05;2.78;;;27.80;99.90;;;;;;5057856;28;20575;-91
2022/06/25 07:53:55;;;;;;;9.43;2.75;;;27.80;99.90;;;;;;5064518;28;20032;-88
2022/06/25 07:56:20;;;;;;;12.63;2.60;;;27.80;99.90;;;;;;5061094;28;20013;-87
2022/06/25 07:58:46;;;;;;;10.52;2.95;;;28.00;99.90;;;;;;5052189;28;20404;-88
2022/06/25 08:01:12;;;;;;;13.15;2.70;;;28.10;99.90;;;;;;5057794;28;20515;-87
2022/06/25 08:03:38;;;;;;;12.45;3.03;;;28.30;99.90;;;;;;5055088;28;20025;-86
2022/06/25 08:06:04;;;;;;;8.65;2.63;;;28.40;99.90;;;;;;5055669;28;20036;-88
2022/06/25 08:08:29;;;;;;;7.50;2.70;;;28.50;99.90;;;;;;5041570;28;20025;-87
2022/06/25 08:10:56;;;;;;;11.38;3.08;;;28.60;99.90;;;;;;5062978;28;20445;-86
2022/06/25 08:13:22;;;;;;;8.10;2.97;;;28.70;99.90;;;;;;5060495;28;20025;-87
2022/06/25 08:15:49;;;;;;;12.18;2.90;;;28.70;99.90;;;;;;5055447;28;20033;-85
2022/06/25 08:18:15;;;;;;;11.52;2.67;;;28.60;99.90;;;;;;5036634;28;20390;-85
2022/06/25 08:20:41;;;;;;;9.98;2.83;;;28.50;99.90;;;;;;5062572;28;20028;-86
2022/06/25 08:23:07;;;;;;;11.38;2.72;;;28.30;99.90;;;;;;5059359;28;20037;-87
2022/06/25 08:25:32;;;;;;;10.98;3.17;;;28.10;99.90;;;;;;5061422;28;20085;-87
2022/06/25 08:27:58;;;;;;;7.93;2.60;;;27.80;99.90;;;;;;5063138;28;20433;-87
2022/06/25 08:30:25;;;;;;;11.93;2.90;;;27.80;99.90;;;;;;5035294;28;20029;-86
2022/06/25 08:32:51;;;;;;;12.20;2.45;;;27.80;99.90;;;;;;5058729;28;20025;-86
2022/06/25 08:35:17;;;;;;;15.85;2.80;;;27.90;99.90;;;;;;5063679;28;20032;-85
2022/06/25 08:37:45;;;;;;;11.55;2.97;;;28.20;99.90;;;;;;5034746;28;20495;-87
2022/06/25 08:40:12;;;;;;;11.32;2.60;;;28.40;99.90;;;;;;5050732;28;20115;-87
2022/06/25 08:42:37;;;;;;;11.68;2.95;;;28.70;99.90;;;;;;5045050;28;20024;-87
2022/06/25 08:45:04;;;;;;;9.57;2.83;;;28.60;99.90;;;;;;5043367;28;20024;-86
2022/06/25 08:47:30;;;;;;;12.27;3.45;;;28.30;99.90;;;;;;5054386;28;20028;-87
2022/06/25 08:49:56;;;;;;;11.48;2.92;;;28.20;99.90;;;;;;5042249;28;20083;-87
2022/06/25 08:52:22;;;;;;;13.63;3.33;;;28.10;99.90;;;;;;5053247;28;20029;-86
2022/06/25 08:54:48;;;;;;;11.13;3.25;;;28.10;99.90;;;;;;5055272;28;20458;-86
2022/06/25 08:57:15;;;;;;;10.77;2.70;;;28.00;99.90;;;;;;5063277;28;20503;-87
2022/06/25 08:59:42;;;;;;;9.95;2.63;;;28.00;99.90;;;;;;5064218;28;20028;-86
2022/06/25 09:02:07;;;;;;;13.20;3.25;;;28.20;99.90;;;;;;5053401;28;20029;-86
2022/06/25 09:04:33;;;;;;;18.60;3.88;;;28.40;99.90;;;;;;5038287;28;20044;-84
2022/06/25 09:07:18;;;;;;;17.20;3.20;;;28.50;99.90;;;;;;5055009;28;20142;-84
2022/06/25 09:09:51;;;;;;;10.05;3.28;;;28.40;99.90;;;;;;5047341;28;20032;-85
2022/06/25 09:12:18;;;;;;;11.55;3.30;;;28.40;99.90;;;;;;5035933;28;20452;-84
2022/06/25 09:14:45;;;;;;;12.65;2.92;;;28.10;99.90;;;;;;5056125;28;20052;-83
2022/06/25 09:17:14;;;;;;;14.25;3.20;;;27.50;99.90;;;;;;5052875;28;20029;-85
2022/06/25 09:19:47;;;;;;;8.40;2.92;;;27.10;99.90;;;;;;5055411;28;20458;-83
2022/06/25 09:22:18;;;;;;;11.30;2.90;;;26.90;99.90;;;;;;5034977;28;20514;-84
2022/06/25 09:24:50;;;;;;;11.10;3.03;;;27.10;99.90;;;;;;5037572;28;20049;-84
2022/06/25 09:27:19;;;;;;;10.00;3.03;;;27.30;99.90;;;;;;5053041;28;20025;-84
2022/06/25 09:29:48;;;;;;;12.00;2.60;;;27.40;99.90;;;;;;5035378;28;20033;-85
2022/06/25 09:32:15;;;;;;;27.73;5.43;;;27.60;99.90;;;;;;5045535;28;20089;-82
2022/06/25 09:34:42;;;;;;;14.57;3.85;;;27.70;99.90;;;;;;5045081;28;20042;-84
2022/06/25 09:37:17;;;;;;;13.40;3.42;;;27.00;99.90;;;;;;5067825;28;20040;-84
2022/06/25 09:39:46;;;;;;;14.45;4.15;;;26.90;99.90;;;;;;5037037;28;20033;-86
2022/06/25 09:42:32;;;;;;;22.80;5.20;;;26.90;99.90;;;;;;5052773;28;20040;-85
2022/06/25 09:45:06;;;;;;;16.77;4.22;;;26.30;99.90;;;;;;5054311;28;20037;-86
2022/06/25 09:47:40;;;;;;;18.65;4.30;;;26.10;99.90;;;;;;5051534;28;20021;-87
2022/06/25 09:50:09;;;;;;;26.67;4.38;;;26.20;99.90;;;;;;5041995;28;20029;-85
2022/06/25 09:52:36;;;;;;;17.48;3.90;;;26.60;99.90;;;;;;5034460;28;20065;-87
2022/06/25 09:55:03;;;;;;;9.05;3.38;;;26.90;99.90;;;;;;5037346;28;20032;-86
2022/06/25 09:57:34;;;;;;;13.93;3.92;;;27.10;99.90;;;;;;5052707;28;20112;-86
2022/06/25 10:00:00;;;;;;;18.00;3.85;;;27.40;99.90;;;;;;5059288;28;20024;-87
2022/06/25 10:02:28;;;;;;;9.98;3.47;;;27.10;99.90;;;;;;5051463;28;20028;-85
2022/06/25 10:05:00;;;;;;;13.00;4.03;;;27.30;99.90;;;;;;5065190;28;20031;-86
2022/06/25 10:10:16;;;;;;;22.42;4.60;;;26.70;99.90;;;;;;5057765;28;20066;-84
2022/06/25 10:12:42;;;;;;;8.75;3.03;;;27.00;99.90;;;;;;5032860;28;20102;-86
2022/06/25 10:15:09;;;;;;;13.38;3.72;;;26.80;99.90;;;;;;5054909;28;20083;-86
2022/06/25 10:17:35;;;;;;;11.68;3.45;;;26.90;99.90;;;;;;5034136;28;20373;-86
2022/06/25 10:20:02;;;;;;;19.08;3.95;;;27.00;99.90;;;;;;5041090;28;20232;-85
2022/06/25 10:22:30;;;;;;;14.55;3.90;;;26.90;99.90;;;;;;5068830;28;20035;-86
2022/06/25 10:24:59;;;;;;;13.45;3.10;;;26.60;99.90;;;;;;5045727;28;20127;-87
2022/06/25 10:27:24;;;;;;;15.02;5.30;;;26.50;99.90;;;;;;5050978;28;20035;-85
2022/06/25 10:29:57;;;;;;;22.50;5.45;;;26.90;99.90;;;;;;5061674;28;20387;-87
2022/06/25 10:32:25;;;;;;;10.35;3.30;;;27.30;99.90;;;;;;5052095;28;20399;-85
2022/06/25 10:34:56;;;;;;;16.85;4.13;;;27.20;99.90;;;;;;5054886;28;20108;-86
2022/06/25 10:37:22;;;;;;;10.55;3.35;;;26.90;99.90;;;;;;5051884;28;20391;-87
2022/06/25 10:39:51;;;;;;;9.25;3.20;;;27.10;99.90;;;;;;5056733;28;20032;-87
2022/06/25 10:45:05;;;;;;;14.38;3.00;;;27.10;99.90;;;;;;5059749;28;20087;-87
2022/06/25 10:47:39;;;;;;;20.90;3.35;;;27.10;99.90;;;;;;5051998;28;20032;-86
2022/06/25 10:50:20;;;;;;;13.30;3.53;;;27.50;99.90;;;;;;5054518;28;20102;-88
2022/06/25 10:53:05;;;;;;;18.70;3.17;;;27.50;99.90;;;;;;5051773;28;20033;-87
2022/06/25 10:55:40;;;;;;;21.33;3.60;;;27.10;99.90;;;;;;5045561;28;20032;-95
2022/06/25 10:58:16;;;;;;;17.20;6.85;;;27.10;99.90;;;;;;5036932;28;20476;-91
2022/06/25 11:01:17;;;;;;;13.75;3.53;;;26.90;99.90;;;;;;5064187;28;20056;-85
2022/06/25 11:03:43;;;;;;;15.10;3.40;;;26.80;99.90;;;;;;5067599;28;20025;-87
2022/06/25 11:06:26;;;;;;;13.45;3.25;;;27.20;99.90;;;;;;5054991;28;20029;-86
2022/06/25 11:08:53;;;;;;;12.68;3.50;;;27.30;99.90;;;;;;5038381;28;20025;-86
2022/06/25 11:11:30;;;;;;;15.20;3.75;;;27.50;99.90;;;;;;5063404;28;20036;-90
2022/06/25 11:13:57;;;;;;;12.93;5.10;;;27.40;99.90;;;;;;5056655;28;20024;-84
2022/06/25 11:16:24;;;;;;;13.57;5.78;;;27.30;99.90;;;;;;5057587;28;20426;-89
2022/06/25 11:18:54;;;;;;;20.50;6.07;;;26.90;99.90;;;;;;5055954;28;20117;-90
2022/06/25 11:21:27;;;;;;;23.80;3.85;;;27.10;99.90;;;;;;5072243;28;20025;-90
2022/06/25 11:24:06;;;;;;;14.75;3.50;;;27.40;99.90;;;;;;5072238;28;20032;-89
2022/06/25 11:29:20;;;;;;;10.95;4.47;;;27.60;99.90;;;;;;5069206;28;20102;-93
2022/06/25 11:31:47;;;;;;;11.95;2.72;;;27.80;99.90;;;;;;5048235;28;20028;-88
2022/06/25 11:34:18;;;;;;;10.43;3.17;;;27.80;99.90;;;;;;5069932;28;20032;-90
2022/06/25 11:36:44;;;;;;;10.45;2.70;;;27.60;99.90;;;;;;5053717;28;20476;-89
2022/06/25 11:39:13;;;;;;;14.65;3.33;;;27.60;99.90;;;;;;5058895;28;20048;-89
2022/06/25 11:41:39;;;;;;;14.00;2.97;;;27.80;99.90;;;;;;5058357;28;20029;-91
2022/06/25 11:44:06;;;;;;;10.50;3.38;;;28.00;99.90;;;;;;5041466;28;20103;-94
2022/06/25 11:46:36;;;;;;;13.57;2.85;;;28.00;99.90;;;;;;5063212;28;20025;-88
2022/06/25 11:49:05;;;;;;;7.28;2.92;;;27.70;99.90;;;;;;5058227;28;20025;-88
2022/06/25 11:51:32;;;;;;;10.35;5.53;;;27.60;99.90;;;;;;5050234;28;20059;-91
2022/06/25 11:54:04;;;;;;;11.25;5.03;;;27.80;99.90;;;;;;5070910;28;20040;-90
2022/06/25 11:56:30;;;;;;;9.23;2.92;;;27.80;99.90;;;;;;5044937;28;20024;-90
2022/06/25 11:58:56;;;;;;;12.68;2.92;;;27.80;99.90;;;;;;5053861;28;20379;-90
2022/06/25 12:01:28;;;;;;;11.98;3.50;;;27.80;99.90;;;;;;5061708;28;20191;-90
2022/06/25 12:03:54;;;;;;;;;;;28.80;99.90;;;;;;5083199;28;20017;-96
2022/06/25 12:06:21;;;;;;;10.75;2.75;;;30.60;99.90;;;;;;5087052;28;19915;-94
2022/06/25 12:08:47;;;;;;;14.82;7.80;;;33.40;99.90;;;;;;5049244;28;20647;-91
